| time (UTC) | temp F | wind direction | speed knots | gust knots | rain 1hr in | rain 24hr in | rain mn in | humidity % | barometer mb |
| 20260906131521 | 81 | 90 | 1.7 | 4.3 | 0.00 | 0.00 | 0.00 | 86 | 1012.3 |
| 20260906130014 | 80 | 66 | 0.0 | 3.5 | 0.00 | 0.00 | 0.00 | 89 | 1012.2 |
| 20260906124511 | 78 | 30 | 0.0 | 2.6 | 0.00 | 0.00 | 0.00 | 91 | 1011.9 |
| 20260906123018 | 77 | 30 | 0.0 | 0.0 | 0.00 | 0.00 | 0.00 | 91 | 1011.8 |
| 20260906121510 | 76 | 30 | 0.0 | 0.0 | 0.00 | 0.00 | 0.00 | 91 | 1011.7 |
| 20260906120006 | 75 | 30 | 0.0 | 3.5 | 0.00 | 0.00 | 0.00 | 91 | 1011.5 |
| 20260906114505 | 75 | 31 | 1.7 | 3.5 | 0.00 | 0.00 | 0.00 | 90 | 1011.4 |
| 20260906113001 | 75 | 44 | 0.0 | 0.0 | 0.00 | 0.00 | 0.00 | 90 | 1011.0 |
| 20260906111606 | 76 | 44 | 0.0 | 0.0 | 0.00 | 0.00 | 0.00 | 89 | 1010.8 |
| 20260906104556 | 76 | 44 | 0.0 | 2.6 | 0.00 | 0.00 | 0.00 | 89 | 1010.6 |
| 20260906103107 | 76 | 45 | 0.9 | 2.6 | 0.00 | 0.00 | 0.00 | 88 | 1010.6 |
| 20260906101555 | 77 | 246 | 0.0 | 0.0 | 0.00 | 0.00 | 0.00 | 87 | 1010.4 |
| 20260906100051 | 78 | 246 | 0.0 | 0.0 | 0.00 | 0.00 | 0.00 | 86 | 1010.2 |
| 20260906094549 | 78 | 246 | 0.0 | 0.0 | 0.00 | 0.00 | 0.00 | 85 | 1010.2 |
| 20260906093051 | 78 | 246 | 0.0 | 0.0 | 0.00 | 0.00 | 0.00 | 85 | 1010.3 |
| 20260906091547 | 78 | 246 | 0.0 | 0.0 | 0.00 | 0.00 | 0.00 | 86 | 1010.2 |
| 20260906090059 | 78 | 246 | 0.0 | 0.9 | 0.00 | 0.00 | 0.00 | 87 | 1010.1 |
| 20260906084545 | 78 | 246 | 0.0 | 0.0 | 0.00 | 0.00 | 0.00 | 87 | 1010.2 |
| 20260906083044 | 78 | 246 | 0.0 | 0.0 | 0.00 | 0.00 | 0.00 | 87 | 1010.3 |
| 20260906081543 | 78 | 246 | 0.0 | 0.0 | 0.00 | 0.00 | 0.00 | 87 | 1010.2 |
| 20260906080042 | 78 | 246 | 0.0 | 0.0 | 0.00 | 0.00 | 0.00 | 87 | 1010.2 |
| 20260906074541 | 78 | 246 | 0.0 | 0.0 | 0.00 | 0.00 | 0.00 | 87 | 1010.0 |
| 20260906073055 | 78 | 246 | 0.0 | 0.0 | 0.00 | 0.00 | 0.00 | 87 | 1010.0 |
| 20260906071538 | 78 | 246 | 0.0 | 0.0 | 0.00 | 0.00 | 0.00 | 87 | 1010.0 |
| 20260906070040 | 78 | 246 | 0.0 | 0.0 | 0.00 | 0.00 | 0.00 | 86 | 1010.0 |
| 20260906064535 | 78 | 246 | 0.0 | 0.0 | 0.00 | 0.00 | 0.00 | 86 | 1010.0 |
| 20260906063044 | 79 | 246 | 0.0 | 0.0 | 0.00 | 0.00 | 0.00 | 85 | 1010.2 |
| 20260906061530 | 79 | 246 | 0.0 | 0.0 | 0.00 | 0.00 | 0.00 | 85 | 1010.5 |
| 20260906060028 | 79 | 246 | 0.0 | 0.0 | 0.00 | 0.00 | 0.00 | 85 | 1010.4 |
| 20260906054526 | 79 | 246 | 0.0 | 0.0 | 0.00 | 0.00 | 0.00 | 85 | 1010.5 |
| 20260906053026 | 79 | 246 | 0.0 | 0.0 | 0.00 | 0.00 | 0.00 | 85 | 1010.5 |
| 20260906051543 | 79 | 246 | 0.0 | 0.0 | 0.00 | 0.00 | 0.00 | 85 | 1010.5 |
| 20260906050021 | 80 | 246 | 0.0 | 0.0 | 0.00 | 0.00 | 0.00 | 84 | 1010.5 |
| 20260906044520 | 80 | 246 | 0.0 | 0.0 | 0.00 | 0.00 | 0.00 | 83 | 1010.6 |
| 20260906043019 | 80 | 246 | 0.0 | 0.0 | 0.00 | 0.00 | 0.00 | 83 | 1010.5 |
| 20260906041524 | 81 | 246 | 0.0 | 0.0 | 0.00 | 0.00 | 0.00 | 82 | 1010.7 |
| 20260906040030 | 81 | 246 | 0.0 | 0.0 | 0.00 | 0.00 | 0.00 | 82 | 1010.5 |
| 20260906034617 | 81 | 246 | 0.0 | 3.5 | 0.00 | 0.00 | 0.00 | 82 | 1010.3 |
| 20260906033054 | 82 | 247 | 0.0 | 0.0 | 0.00 | 0.00 | 0.00 | 80 | 1010.1 |
| 20260906031554 | 83 | 345 | 0.0 | 0.0 | 0.00 | 0.00 | 0.00 | 77 | 1010.2 |
| 20260906030053 | 83 | 346 | 0.0 | 0.0 | 0.00 | 0.00 | 0.00 | 75 | 1010.1 |
| 20260906024553 | 84 | 346 | 0.0 | 0.0 | 0.00 | 0.00 | 0.00 | 74 | 1009.9 |
| 20260906021549 | 84 | 346 | 0.0 | 0.0 | 0.00 | 0.00 | 0.00 | 73 | 1009.6 |
| 20260906014545 | 87 | 345 | 0.0 | 0.0 | 0.00 | 0.00 | 0.00 | 69 | 1009.3 |
| 20260906013101 | 87 | 38 | 0.0 | 0.0 | 0.00 | 0.00 | 0.00 | 67 | 1009.3 |
| 20260906011548 | 88 | 38 | 0.0 | 0.0 | 0.00 | 0.00 | 0.00 | 66 | 1009.2 |
| 20260906010043 | 88 | 38 | 0.0 | 0.0 | 0.00 | 0.00 | 0.00 | 65 | 1009.0 |
| 20260906004543 | 90 | 24 | 0.0 | 0.0 | 0.00 | 0.00 | 0.00 | 65 | 1009.0 |
| 20260906003044 | 90 | 23 | 0.0 | 0.0 | 0.00 | 0.00 | 0.00 | 64 | 1008.9 |
| 20260906001541 | 91 | 26 | 0.0 | 0.0 | 0.00 | 0.00 | 0.00 | 64 | 1009.1 |
| 20260906000046 | 92 | 145 | 0.0 | 0.0 | 0.00 | 0.00 | 0.00 | 64 | 1009.1 |
| 20260905234540 | 93 | 145 | 0.0 | 1.7 | 0.00 | 0.00 | 0.00 | 63 | 1009.2 |
| 20260905233043 | 93 | 145 | 0.0 | 0.0 | 0.00 | 0.00 | 0.00 | 59 | 1009.2 |
| 20260905231539 | 94 | 145 | 0.0 | 1.7 | 0.00 | 0.00 | 0.00 | 57 | 1009.0 |
| 20260905230041 | 95 | 145 | 0.0 | 2.6 | 0.00 | 0.00 | 0.00 | 54 | 1009.0 |
| 20260905224538 | 97 | 145 | 0.0 | 0.0 | 0.00 | 0.00 | 0.00 | 51 | 1009.0 |
| 20260905223042 | 97 | 145 | 0.9 | 3.5 | 0.00 | 0.00 | 0.00 | 48 | 1009.1 |
| 20260905221536 | 98 | 145 | 1.7 | 4.3 | 0.00 | 0.00 | 0.00 | 46 | 1009.1 |
| 20260905220033 | 98 | 147 | 0.0 | 4.3 | 0.00 | 0.00 | 0.00 | 47 | 1009.3 |
| 20260905214532 | 97 | 166 | 1.7 | 4.3 | 0.00 | 0.00 | 0.00 | 46 | 1009.4 |
| 20260905213031 | 98 | 167 | 2.6 | 4.3 | 0.00 | 0.00 | 0.00 | 46 | 1009.3 |
| 20260905211530 | 98 | 178 | 1.7 | 4.3 | 0.00 | 0.00 | 0.00 | 45 | 1009.4 |
| 20260905210045 | 97 | 161 | 0.0 | 0.0 | 0.00 | 0.00 | 0.00 | 48 | 1009.5 |
| 20260905204534 | 97 | 146 | 0.9 | 6.1 | 0.00 | 0.00 | 0.00 | 47 | 1009.7 |
| 20260905203027 | 99 | 144 | 1.7 | 6.1 | 0.00 | 0.00 | 0.00 | 45 | 1009.7 |
| 20260905201525 | 99 | 123 | 2.6 | 6.1 | 0.00 | 0.00 | 0.00 | 45 | 1010.1 |
| 20260905200024 | 100 | 190 | 1.7 | 7.0 | 0.00 | 0.00 | 0.00 | 43 | 1010.2 |
| 20260905194519 | 99 | 195 | 2.6 | 5.2 | 0.00 | 0.00 | 0.00 | 45 | 1010.5 |
| 20260905193017 | 98 | 205 | 4.3 | 6.1 | 0.00 | 0.00 | 0.00 | 45 | 1010.7 |
| 20260905191515 | 98 | 170 | 2.6 | 5.2 | 0.00 | 0.00 | 0.00 | 46 | 1011.0 |
| 20260905190018 | 98 | 127 | 3.5 | 7.8 | 0.00 | 0.00 | 0.00 | 47 | 1011.1 |
| 20260905184515 | 99 | 109 | 3.5 | 7.8 | 0.00 | 0.00 | 0.00 | 47 | 1011.2 |
| 20260905183007 | 98 | 83 | 0.9 | 5.2 | 0.00 | 0.00 | 0.00 | 49 | 1011.6 |
| 20260905181505 | 97 | 94 | 2.6 | 6.1 | 0.00 | 0.00 | 0.00 | 52 | 1011.6 |
| 20260905180004 | 97 | 148 | 1.7 | 7.0 | 0.00 | 0.00 | 0.00 | 51 | 1011.7 |
| 20260905174503 | 97 | 127 | 2.6 | 7.0 | 0.00 | 0.00 | 0.00 | 51 | 1011.8 |
| 20260905173100 | 97 | 126 | 3.5 | 7.8 | 0.00 | 0.00 | 0.00 | 50 | 1011.9 |
| 20260905171634 | 96 | 128 | 3.5 | 9.6 | 0.00 | 0.00 | 0.00 | 53 | 1012.1 |
| 20260905170105 | 95 | 135 | 3.5 | 7.0 | 0.00 | 0.00 | 0.00 | 56 | 1012.3 |
| 20260905164601 | 95 | 127 | 4.3 | 7.0 | 0.00 | 0.00 | 0.00 | 56 | 1012.4 |
| 20260905163057 | 96 | 131 | 2.6 | 7.0 | 0.00 | 0.00 | 0.00 | 57 | 1012.7 |
| 20260905161552 | 94 | 58 | 0.9 | 6.1 | 0.00 | 0.00 | 0.00 | 62 | 1012.7 |
| 20260905160049 | 93 | 135 | 1.7 | 4.3 | 0.00 | 0.00 | 0.00 | 65 | 1012.8 |
| 20260905154555 | 92 | 106 | 2.6 | 6.1 | 0.00 | 0.00 | 0.00 | 68 | 1012.8 |
| 20260905153039 | 91 | 110 | 2.6 | 5.2 | 0.00 | 0.00 | 0.00 | 69 | 1012.8 |
| 20260905151535 | 90 | 5 | 1.7 | 7.0 | 0.00 | 0.00 | 0.00 | 68 | 1012.8 |
| 20260905150040 | 89 | 321 | 2.6 | 7.0 | 0.00 | 0.00 | 0.00 | 69 | 1012.8 |
| 20260905144534 | 88 | 17 | 0.0 | 5.2 | 0.00 | 0.00 | 0.00 | 72 | 1012.8 |
| 20260905143026 | 87 | 162 | 0.0 | 4.3 | 0.00 | 0.00 | 0.00 | 77 | 1012.8 |
| 20260905141522 | 86 | 167 | 0.0 | 4.3 | 0.00 | 0.00 | 0.00 | 79 | 1012.8 |
| 20260905140019 | 85 | 167 | 0.0 | 2.6 | 0.00 | 0.00 | 0.00 | 81 | 1012.8 |
| 20260905134517 | 83 | 173 | 0.0 | 0.0 | 0.00 | 0.00 | 0.00 | 83 | 1012.7 |
| 20260905133012 | 82 | 148 | 0.0 | 0.0 | 0.00 | 0.00 | 0.00 | 86 | 1012.7 |